Latest Weather Observations for Scotts Peak

IDT60801

Issued at 6:32 am EST Saturday 24 June 2017 (issued every 30 minutes, with the page automatically refreshed every 10 minutes)

About weather observations | Map of weather stations | Latest weather observations for TAS | Other Formats
Station Details ID: 097083 Name: SCOTTS PEAK DAM Lat: -43.04 Lon: 146.27 Height: 408.0 m
Data from the previous 72 hours. | See also: Recent months at Scotts Peak
Date/Time
EST
Temp
°C
App
Temp
°C
Dew
Point
°C
Rel
Hum
%
Delta-T
°C
Wind Press
QNH
hPa
Press
MSL
hPa
Rain since
9am
mm
Dir  Spd
km/h
Gust
km/h
Spd
kts
Gust
kts
24/06:30am 2.1 -4.3 1.2 94 0.4 WSW 24 33 13 18 - - 21.8
24/06:00am 1.9 -4.5 0.9 93 0.4 W 24 33 13 18 - - 21.6
24/05:30am 1.9 -6.6 1.2 95 0.3 WNW 35 46 19 25 - - 21.4
24/05:00am 1.1 -5.3 0.8 98 0.1 W 24 39 13 21 - - 21.0
24/04:51am 1.3 -7.2 0.7 96 0.2 WNW 35 52 19 28 - - 20.8
24/04:30am 1.3 -9.2 1.2 99 0.0 WNW 46 65 25 35 - - 20.4
24/04:20am 1.9 -7.2 1.8 99 0.0 NW 39 61 21 33 - - 20.0
24/04:00am 1.8 -5.8 0.8 93 0.4 WNW 30 41 16 22 - - 19.4
24/03:47am 2.1 -6.8 0.5 89 0.6 WNW 37 57 20 31 - - 19.2
24/03:30am 1.9 -7.3 1.0 94 0.3 WNW 39 48 21 26 - - 18.8
24/03:00am 1.4 -5.8 0.7 95 0.3 WNW 28 35 15 19 - - 18.2
24/02:30am 1.1 -4.5 0.2 94 0.3 W 19 30 10 16 - - 18.2
24/02:00am 1.5 -6.1 0.3 92 0.5 WSW 30 44 16 24 - - 18.0
24/01:50am 1.2 -6.2 -0.4 89 0.6 WSW 28 52 15 28 - - 18.0
24/01:30am 2.1 -6.1 -1.2 79 1.2 W 32 46 17 25 - - 17.8
24/01:00am 2.0 -3.9 -2.5 72 1.6 W 19 33 10 18 - - 17.8
24/12:30am 2.0 -4.4 -1.6 77 1.3 W 22 44 12 24 - - 17.8
24/12:00am 1.8 -4.8 -0.6 84 0.9 W 24 33 13 18 - - 17.6
 
Date/Time
EST
Temp
°C
App
Temp
°C
Dew
Point
°C
Rel
Hum
%
Delta-T
°C
Wind Press
QNH
hPa
Press
MSL
hPa
Rain since
9am
mm
Dir  Spd
km/h
Gust
km/h
Spd
kts
Gust
kts
23/11:34pm 1.6 -5.8 -0.5 86 0.8 WNW 28 46 15 25 - - 17.6
23/11:30pm 1.4 -5.3 -0.8 85 0.8 WNW 24 35 13 19 - - 17.6
23/11:04pm 1.7 -6.0 -0.4 86 0.8 W 30 50 16 27 - - 17.4
23/11:00pm 1.4 -7.0 -0.7 86 0.8 W 33 61 18 33 - - 17.4
23/10:57pm 1.5 -7.3 -0.9 84 0.9 W 35 63 19 34 - - 17.4
23/10:54pm 1.5 -7.6 -0.7 85 0.8 WNW 37 63 20 34 - - 17.4
23/10:30pm 1.1 -6.1 0.5 96 0.2 WSW 28 50 15 27 - - 17.0
23/10:24pm 1.2 -4.5 0.5 95 0.3 W 20 50 11 27 - - 17.0
23/10:00pm 1.0 -4.6 0.9 99 0.0 W 20 30 11 16 - - 16.8
23/09:42pm 0.5 -7.1 0.4 99 0.0 WSW 30 48 16 26 - - 16.6
23/09:30pm 0.8 -6.0 0.7 99 0.0 W 26 46 14 25 - - 16.6
23/09:11pm 0.7 -7.8 0.6 99 0.0 WSW 35 59 19 32 - - 16.2
23/09:03pm 0.9 -8.4 0.8 99 0.0 WNW 39 59 21 32 - - 16.0
23/09:00pm 1.2 -7.3 1.1 99 0.0 WNW 35 59 19 32 - - 16.0
23/08:30pm 1.5 -6.5 1.4 99 0.0 WNW 33 57 18 31 - - 15.4
23/08:19pm 1.4 -6.6 0.7 95 0.3 W 32 50 17 27 - - 14.8
23/08:13pm 2.0 -7.3 0.8 92 0.5 WNW 39 50 21 27 - - 14.6
23/08:05pm 2.1 -7.8 1.5 96 0.2 WNW 43 61 23 33 - - 14.4
23/08:00pm 2.0 -8.5 1.3 95 0.3 WNW 46 61 25 33 - - 14.4
23/07:47pm 2.9 -5.1 1.4 90 0.6 WNW 33 48 18 26 - - 14.2
23/07:37pm 3.2 -5.3 0.9 85 0.9 W 35 52 19 28 - - 14.2
23/07:30pm 3.1 -6.5 1.0 86 0.8 WNW 41 52 22 28 - - 14.2
23/07:00pm 3.5 -5.0 3.4 99 0.0 W 37 52 20 28 - - 14.2
23/06:30pm 3.1 -6.6 3.0 99 0.0 WNW 43 57 23 31 - - 13.8
23/06:20pm 3.2 -6.1 3.1 99 0.0 W 41 63 22 34 - - 13.8
23/06:00pm 3.2 -7.0 3.1 99 0.0 WNW 46 61 25 33 - - 13.8
23/05:30pm 3.4 -6.8 3.3 99 0.0 W 46 61 25 33 - - 13.6
23/05:27pm 3.4 -6.2 3.4 100 0.0 WNW 43 61 23 33 - - 13.4
23/05:00pm 2.7 -6.6 2.7 100 0.0 WNW 41 57 22 31 - - 13.2
23/04:55pm 2.9 -6.0 2.9 100 0.0 WNW 39 57 21 31 - - 13.2
23/04:45pm 2.8 -5.8 2.8 100 0.0 W 37 52 20 28 - - 13.0
23/04:30pm 2.8 -6.5 2.8 100 0.0 W 41 61 22 33 - - 12.2
23/04:28pm 2.9 -6.8 2.8 99 0.0 W 43 61 23 33 - - 12.0
23/04:00pm 3.4 -8.7 3.4 100 0.0 W 56 74 30 40 - - 10.4
23/03:30pm 4.3 -4.4 4.3 100 0.0 WSW 39 63 21 34 - - 8.4
23/03:18pm 5.1 -3.0 5.1 100 0.0 W 37 63 20 34 - - 8.0
23/03:17pm 5.4 -2.7 5.4 100 0.0 W 37 63 20 34 - - 7.6
23/03:00pm 6.3 -2.7 6.3 100 0.0 W 43 63 23 34 - - 7.4
23/02:56pm 6.4 -2.6 6.4 100 0.0 W 43 63 23 34 - - 7.4
23/02:53pm 6.4 -3.5 6.4 100 0.0 W 48 76 26 41 - - 7.4
23/02:30pm 7.0 -5.7 7.0 100 0.0 WNW 63 83 34 45 - - 7.2
23/02:00pm 6.9 -6.5 6.9 100 0.0 WNW 67 96 36 52 - - 7.0
23/01:30pm 6.9 -6.9 6.9 100 0.0 WNW 69 100 37 54 - - 6.2
23/01:00pm 7.4 -5.2 7.3 99 0.0 WNW 63 95 34 51 - - 3.4
23/12:30pm 8.5 -5.8 7.3 92 0.6 WNW 72 102 39 55 - - 0.8
23/12:18pm 8.4 -5.0 7.3 93 0.5 NW 67 102 36 55 - - 0.6
23/12:17pm 8.5 -4.1 7.4 93 0.5 NW 63 100 34 54 - - 0.6
23/12:00pm 8.6 -3.6 7.4 92 0.6 NNW 61 80 33 43 - - 0.4
23/11:30am 9.3 -2.7 6.6 83 1.3 NW 59 82 32 44 - - 0.2
23/11:00am 9.4 -2.3 6.1 80 1.6 NW 57 83 31 45 - - 0.2
23/10:37am 9.4 -3.0 6.5 82 1.4 NW 61 80 33 43 - - 0.2
23/10:30am 9.3 -4.3 6.4 82 1.4 NW 67 80 36 43 - - 0.2
23/10:00am 8.6 -5.8 6.7 88 0.9 NNW 72 91 39 49 - - 0.2
23/09:43am 8.1 -4.1 7.5 96 0.3 NNW 61 80 33 43 - - 0.2
23/09:30am 8.2 -4.1 7.1 93 0.5 NW 61 76 33 41 - - 0.2
23/09:13am 8.1 -4.5 7.2 94 0.4 NW 63 89 34 48 - - 0.2
23/09:00am 7.7 -2.4 7.3 97 0.2 NW 50 65 27 35 - - 1.6
23/08:30am 7.8 -3.8 6.6 92 0.6 NW 57 78 31 42 - - 1.4
23/08:09am 7.9 -3.7 5.9 87 0.9 NW 56 74 30 40 - - 1.4
23/08:00am 7.8 -3.9 6.1 89 0.8 NW 57 74 31 40 - - 1.4
23/07:32am 7.9 -1.0 6.7 92 0.6 NW 43 65 23 35 - - 1.4
23/07:30am 8.0 -1.0 6.5 90 0.7 NW 43 65 23 35 - - 1.4
23/07:26am 8.0 -1.6 6.3 89 0.8 NW 46 65 25 35 - - 1.4
23/07:00am 8.4 -4.2 5.7 83 1.3 NNW 61 80 33 43 - - 1.4
23/06:30am 8.4 -3.3 5.3 81 1.4 NW 56 78 30 42 - - 1.4
23/06:00am 8.2 -3.4 6.0 86 1.0 NW 56 74 30 40 - - 1.4
23/05:30am 8.4 -1.4 5.5 82 1.3 NW 46 65 25 35 - - 1.4
23/05:07am 8.5 -1.6 5.6 82 1.3 NW 48 67 26 36 - - 1.4
23/05:00am 8.3 -2.2 5.4 82 1.3 NW 50 67 27 36 - - 1.4
23/04:41am 8.6 0.7 6.4 86 1.0 NW 37 56 20 30 - - 1.4
23/04:30am 7.9 1.1 6.8 93 0.5 NW 32 41 17 22 - - 1.4
23/04:00am 7.4 0.6 7.0 97 0.2 NNW 32 37 17 20 - - 1.4
23/03:30am 7.1 0.1 6.8 98 0.1 NNW 33 43 18 23 - - 1.4
23/03:00am 7.0 -1.9 6.9 99 0.0 NNW 43 61 23 33 - - 1.4
23/02:30am 7.1 0.1 7.0 99 0.0 NNW 33 52 18 28 - - 1.4
23/02:28am 7.1 -0.2 7.0 99 0.0 NNW 35 54 19 29 - - 1.4
23/02:00am 7.0 -0.3 7.0 100 0.0 NNW 35 52 19 28 - - 1.4
23/01:30am 6.8 0.0 6.8 100 0.0 NNW 32 41 17 22 - - 1.2
23/01:00am 6.6 -0.8 6.6 100 0.0 NNW 35 50 19 27 - - 1.2
23/12:30am 6.4 0.3 6.4 100 0.0 NNW 28 37 15 20 - - 1.2
23/12:00am 6.6 1.3 6.6 100 0.0 NNW 24 30 13 16 - - 1.2
 
Date/Time
EST
Temp
°C
App
Temp
°C
Dew
Point
°C
Rel
Hum
%
Delta-T
°C
Wind Press
QNH
hPa
Press
MSL
hPa
Rain since
9am
mm
Dir  Spd
km/h
Gust
km/h
Spd
kts
Gust
kts
22/11:30pm 6.5 1.5 6.5 100 0.0 NNW 22 28 12 15 - - 1.2
22/11:00pm 6.2 0.8 6.2 100 0.0 NNW 24 30 13 16 - - 1.0
22/10:30pm 6.3 -0.6 6.3 100 0.0 NNW 32 39 17 21 - - 1.0
22/10:00pm 6.2 -0.8 6.1 99 0.0 NNW 32 39 17 21 - - 1.0
22/09:30pm 6.0 -0.6 6.0 100 0.0 NNW 30 37 16 20 - - 1.0
22/09:00pm 6.0 -0.6 5.9 99 0.0 NNW 30 39 16 21 - - 1.0
22/08:30pm 5.9 -0.8 5.8 99 0.0 NW 30 37 16 20 - - 0.8
22/08:00pm 5.9 -1.7 5.8 99 0.0 NW 35 46 19 25 - - 0.8
22/07:30pm 5.8 -1.3 5.7 99 0.0 NNW 32 37 17 20 - - 0.4
22/07:00pm 5.7 -1.0 5.6 99 0.0 NW 30 35 16 19 - - 0.2
22/06:30pm 5.7 -1.6 5.6 99 0.0 NNW 33 41 18 22 - - 0.2
22/06:00pm 5.7 -0.7 5.0 95 0.3 NW 28 37 15 20 - - 0.0
22/05:30pm 6.0 -1.0 4.3 89 0.7 NNW 30 39 16 21 - - 0.0
22/05:00pm 6.0 -1.3 4.3 89 0.7 NNW 32 39 17 21 - - 0.0
22/04:30pm 5.9 -0.8 3.9 87 0.9 NNW 28 35 15 19 - - 0.0
22/04:00pm 6.1 -3.4 3.9 86 1.0 NNW 43 56 23 30 - - 0.0
22/03:30pm 6.5 -0.9 4.0 84 1.1 NNW 32 41 17 22 - - 0.0
22/03:00pm 6.9 -0.1 3.9 81 1.3 NNW 30 35 16 19 - - 0.0
22/02:30pm 7.3 -1.0 4.4 82 1.3 NNW 37 46 20 25 - - 0.0
22/02:00pm 7.3 0.1 5.1 86 1.0 NNW 32 44 17 24 - - 0.0
22/01:30pm 6.0 -1.5 3.7 85 1.0 NNW 32 37 17 20 - - 0.0
22/01:00pm 5.7 -0.9 4.0 89 0.7 NNW 28 37 15 20 - - 0.0
22/12:30pm 5.0 -2.1 3.3 89 0.7 NNW 30 39 16 21 - - 0.0
22/12:00pm 5.1 -1.2 3.8 91 0.6 NNW 26 32 14 17 - - 0.0
22/11:30am 5.2 -0.9 4.6 96 0.3 NNW 26 32 14 17 - - 0.0
22/11:00am 4.9 0.9 4.8 99 0.0 NNW 15 20 8 11 - - 0.0
22/10:30am 4.6 1.3 4.5 99 0.0 NNW 11 13 6 7 - - 0.0
22/10:00am 4.1 -0.8 4.0 99 0.0 NNW 19 20 10 11 - - 0.0
22/09:30am 2.7 -0.6 2.6 99 0.0 NNW 9 13 5 7 - - 0.0
22/09:00am 2.7 -1.0 2.6 99 0.0 N 11 15 6 8 - - 1.6
22/08:30am 2.4 -1.3 2.3 99 0.0 NNW 11 15 6 8 - - 1.6
22/08:00am 1.3 -1.6 1.2 99 0.0 NW 6 9 3 5 - - 1.6
22/07:30am 1.3 -1.6 1.2 99 0.0 NW 6 9 3 5 - - 1.6
22/07:00am 1.1 -4.0 1.0 99 0.0 N 17 20 9 11 - - 1.6
22/06:30am 1.7 -2.5 1.6 99 0.0 NNW 13 17 7 9 - - 1.6
22/06:00am 1.7 -1.4 1.6 99 0.0 NW 7 9 4 5 - - 1.6
22/05:30am 1.3 -3.0 1.2 99 0.0 N 13 17 7 9 - - 1.6
22/05:00am 1.5 -2.0 1.4 99 0.0 NNW 9 15 5 8 - - 1.6
22/04:30am 1.5 -1.6 1.4 99 0.0 NW 7 9 4 5 - - 1.6
22/04:00am 1.6 -1.3 1.5 99 0.0 NW 6 11 3 6 - - 1.6
22/03:30am 1.7 -1.2 1.6 99 0.0 NW 6 7 3 4 - - 1.6
22/03:00am 1.5 -1.4 1.4 99 0.0 NW 6 9 3 5 - - 1.6
22/02:30am 1.8 -1.1 1.7 99 0.0 WSW 6 7 3 4 - - 1.6
22/02:00am 2.0 -0.1 1.9 99 0.0 W 2 9 1 5 - - 1.6
22/01:30am 1.9 -1.9 1.8 99 0.0 N 11 17 6 9 - - 1.6
22/01:00am 1.8 -1.2 1.7 99 0.0 SW 7 9 4 5 - - 1.4
22/12:30am 1.9 -0.9 1.8 99 0.0 W 6 9 3 5 - - 1.4
22/12:00am 2.4 -0.6 2.3 99 0.0 NW 7 9 4 5 - - 1.4
 
Date/Time
EST
Temp
°C
App
Temp
°C
Dew
Point
°C
Rel
Hum
%
Delta-T
°C
Wind Press
QNH
hPa
Press
MSL
hPa
Rain since
9am
mm
Dir  Spd
km/h
Gust
km/h
Spd
kts
Gust
kts
21/11:30pm 2.4 -1.3 2.3 99 0.0 NNW 11 15 6 8 - - 1.4
21/11:00pm 2.6 -0.7 2.5 99 0.0 NNW 9 13 5 7 - - 1.4
21/10:30pm 2.1 -2.0 2.0 99 0.0 NNW 13 19 7 10 - - 1.4
21/10:00pm 2.2 -2.7 2.1 99 0.0 NNW 17 20 9 11 - - 1.4
21/09:30pm 2.4 -1.7 2.3 99 0.0 NW 13 15 7 8 - - 1.4
21/09:00pm 2.8 -1.6 2.7 99 0.0 NW 15 17 8 9 - - 1.4
21/08:30pm 2.4 -1.7 2.3 99 0.0 NW 13 15 7 8 - - 1.4
21/08:00pm 2.0 -2.2 1.9 99 0.0 NW 13 17 7 9 - - 1.4
21/07:30pm 1.8 -2.0 1.7 99 0.0 NW 11 13 6 7 - - 1.4
21/07:00pm 2.2 -1.2 2.1 99 0.0 WNW 9 13 5 7 - - 1.4
21/06:30pm 2.2 -1.5 2.1 99 0.0 NNW 11 15 6 8 - - 1.4
21/06:00pm 2.3 -0.7 2.2 99 0.0 WNW 7 9 4 5 - - 1.4
21/05:30pm 2.5 -1.7 1.9 96 0.2 NW 13 17 7 9 - - 1.4
21/05:00pm 3.2 -0.6 1.9 91 0.5 WNW 11 15 6 8 - - 1.4
21/04:30pm 3.7 -0.3 3.0 95 0.3 WNW 13 15 7 8 - - 1.4
21/04:00pm 4.2 -0.8 3.5 95 0.3 W 19 22 10 12 - - 1.4
21/03:30pm 4.7 0.1 3.7 93 0.4 WNW 17 24 9 13 - - 1.4
21/03:00pm 4.4 -0.8 3.5 94 0.4 WSW 20 35 11 19 - - 1.4
21/02:30pm 5.7 0.1 3.4 85 1.0 WNW 22 32 12 17 - - 0.6
21/02:00pm 8.0 2.0 5.5 84 1.1 NW 26 30 14 16 - - 0.6
21/01:30pm 7.9 2.3 7.1 95 0.4 NW 26 33 14 18 - - 0.6
21/01:00pm 6.3 1.1 3.6 83 1.2 NW 20 30 11 16 - - 0.2
21/12:30pm 6.4 0.5 3.9 84 1.1 WNW 24 30 13 16 - - 0.2
21/12:00pm 4.5 -1.4 3.8 95 0.3 NW 24 30 13 16 - - 0.2
21/11:30am 5.5 -0.3 2.5 81 1.3 NW 22 35 12 19 - - 0.0
21/11:00am 4.9 -1.8 1.7 80 1.3 WNW 26 32 14 17 - - 0.0
21/10:30am 4.5 -1.4 3.8 95 0.3 NW 24 30 13 16 - - 0.0
21/10:00am 4.6 -0.5 4.0 96 0.3 NW 20 26 11 14 - - 0.0
21/09:30am 4.0 -1.0 3.7 98 0.1 NW 19 26 10 14 - - 0.0
21/09:00am 3.4 -2.8 2.1 91 0.5 WNW 24 35 13 19 - - 11.4
21/08:30am 3.4 -1.9 2.1 91 0.5 WNW 19 32 10 17 - - 11.4
21/08:00am 4.1 -1.5 1.5 83 1.0 WNW 20 39 11 21 - - 11.4
21/07:30am 4.0 -2.2 1.9 86 0.9 WNW 24 35 13 19 - - 11.4
21/07:00am 3.9 -1.5 2.7 92 0.5 W 20 41 11 22 - - 11.4

Other Formats:

Comma delimited format used in spreadsheet applications
http://www.bom.gov.au/fwo/IDT60801/IDT60801.95958.axf

JavaScript Object Notation format (JSON) in row-major order
http://www.bom.gov.au/fwo/IDT60801/IDT60801.95958.json